Time;durP1;ratioP1;P1;durP2;ratioP2;P2;SDS_P1;SDS_P2;PMS_P1;PMS_P2;Temp;Humidity;BMP_temperature;BMP_pressure;BME280_temperature;BME280_humidity;BME280_pressure;Samples;Min_cycle;Max_cycle;Signal;HPM_P1;HPM_P2
2021/11/04 00:00:24;;;;;;;28.63;19.63;;;6.60;99.90;;;;;;4972069;28;20667;-82
2021/11/04 00:02:50;;;;;;;26.50;17.33;;;6.60;99.90;;;;;;4976301;28;20031;-83
2021/11/04 00:05:16;;;;;;;27.40;17.30;;;6.60;99.90;;;;;;4978047;28;20037;-83
2021/11/04 00:07:42;;;;;;;28.80;18.30;;;6.60;99.90;;;;;;4975263;28;20506;-83
2021/11/04 00:10:09;;;;;;;29.77;18.30;;;6.60;99.90;;;;;;4974751;28;20029;-82
2021/11/04 00:12:35;;;;;;;27.63;16.85;;;6.60;99.90;;;;;;4975622;28;20034;-83
2021/11/04 00:15:02;;;;;;;30.50;19.83;;;6.60;99.90;;;;;;4970415;28;20030;-83
2021/11/04 00:17:27;;;;;;;30.67;20.70;;;6.60;99.90;;;;;;4970858;28;20498;-84
2021/11/04 00:19:53;;;;;;;25.48;17.65;;;6.60;99.90;;;;;;4971514;28;20019;-84
2021/11/04 00:22:19;;;;;;;34.25;20.15;;;6.60;99.90;;;;;;4969594;28;20443;-82
2021/11/04 00:24:44;;;;;;;32.63;19.35;;;6.60;99.90;;;;;;4971830;28;20719;-84
2021/11/04 00:27:10;;;;;;;31.50;19.05;;;6.60;99.90;;;;;;4971104;28;20031;-84
2021/11/04 00:29:35;;;;;;;29.75;20.88;;;6.60;99.90;;;;;;4982143;28;20031;-84
2021/11/04 00:32:02;;;;;;;25.02;17.80;;;6.60;99.90;;;;;;4974810;28;20043;-84
2021/11/04 00:34:29;;;;;;;28.20;18.40;;;6.60;99.90;;;;;;4972134;28;20034;-84
2021/11/04 00:36:55;;;;;;;29.67;20.52;;;6.60;99.90;;;;;;4972102;28;20084;-84
2021/11/04 00:39:21;;;;;;;30.10;20.70;;;6.60;99.90;;;;;;4971040;28;20027;-84
2021/11/04 00:41:46;;;;;;;35.15;20.67;;;6.50;99.90;;;;;;4972339;28;20027;-84
2021/11/04 00:44:12;;;;;;;32.70;20.42;;;6.60;99.90;;;;;;4972370;28;20033;-84
2021/11/04 00:46:39;;;;;;;32.22;20.52;;;6.60;99.90;;;;;;4973632;28;20071;-81
2021/11/04 00:49:05;;;;;;;30.67;20.40;;;6.60;99.90;;;;;;4975406;28;20030;-84
2021/11/04 00:51:31;;;;;;;30.00;18.98;;;6.60;99.90;;;;;;4973013;28;20106;-82
2021/11/04 00:53:57;;;;;;;31.23;20.90;;;6.60;99.90;;;;;;4970683;28;20023;-83
2021/11/04 00:56:22;;;;;;;33.72;21.17;;;6.60;99.90;;;;;;4973864;28;20019;-81
2021/11/04 00:58:51;;;;;;;34.05;21.55;;;6.60;99.90;;;;;;4972019;28;20030;-81
2021/11/04 01:01:17;;;;;;;29.80;19.38;;;6.60;99.90;;;;;;4976403;28;20035;-82
2021/11/04 01:03:44;;;;;;;30.50;20.80;;;6.50;99.90;;;;;;4972468;28;20474;-84
2021/11/04 01:06:09;;;;;;;33.70;20.33;;;6.60;99.90;;;;;;4972475;28;20105;-82
2021/11/04 01:08:35;;;;;;;32.40;21.02;;;6.60;99.90;;;;;;4970178;28;20026;-84
2021/11/04 01:11:00;;;;;;;30.88;20.08;;;6.60;99.90;;;;;;4973720;28;20027;-82
2021/11/04 01:13:26;;;;;;;32.20;20.60;;;6.60;99.90;;;;;;4973229;28;20394;-82
2021/11/04 01:15:52;;;;;;;33.88;21.42;;;6.60;99.90;;;;;;4977387;28;20444;-83
2021/11/04 01:18:17;;;;;;;36.22;20.67;;;6.60;99.90;;;;;;4976530;28;20450;-83
2021/11/04 01:20:43;;;;;;;33.72;20.33;;;6.60;99.90;;;;;;4974727;28;20051;-82
2021/11/04 01:23:08;;;;;;;29.75;20.35;;;6.60;99.90;;;;;;4971793;28;20084;-83
2021/11/04 01:25:34;;;;;;;37.15;20.48;;;6.60;99.90;;;;;;4978748;28;20019;-83
2021/11/04 01:28:00;;;;;;;36.55;22.33;;;6.60;99.90;;;;;;4971166;28;20402;-84
2021/11/04 01:30:25;;;;;;;37.22;21.25;;;6.60;99.90;;;;;;4976310;28;20041;-82
2021/11/04 01:32:51;;;;;;;34.40;20.92;;;6.60;99.90;;;;;;4975560;28;20095;-83
2021/11/04 01:35:16;;;;;;;37.20;22.58;;;6.50;99.90;;;;;;4974566;28;20039;-82
2021/11/04 01:37:42;;;;;;;36.53;21.90;;;6.50;99.90;;;;;;4973426;28;20034;-83
2021/11/04 01:40:08;;;;;;;35.58;21.25;;;6.50;99.90;;;;;;4969828;28;20019;-84
2021/11/04 01:42:34;;;;;;;35.53;21.45;;;6.50;99.90;;;;;;4971020;28;21803;-82
2021/11/04 01:45:00;;;;;;;38.13;22.77;;;6.50;99.90;;;;;;4972964;28;20035;-83
2021/11/04 01:47:26;;;;;;;34.60;19.95;;;6.50;99.90;;;;;;4972584;28;20026;-85
2021/11/04 01:49:51;;;;;;;32.60;21.08;;;6.50;99.90;;;;;;4963962;28;20049;-82
2021/11/04 01:52:17;;;;;;;39.25;22.92;;;6.60;99.90;;;;;;4971292;28;20031;-83
2021/11/04 01:54:42;;;;;;;36.30;21.48;;;6.50;99.90;;;;;;4969806;28;20027;-82
2021/11/04 01:57:08;;;;;;;34.90;21.25;;;6.50;99.90;;;;;;4972949;28;20061;-83
2021/11/04 01:59:34;;;;;;;35.22;20.67;;;6.60;99.90;;;;;;4972993;28;20023;-83
2021/11/04 02:02:16;;;;;;;36.33;20.10;;;6.50;99.90;;;;;;4973036;28;20030;-83
2021/11/04 02:04:46;;;;;;;35.67;21.92;;;6.60;99.90;;;;;;4973340;28;20114;-82
2021/11/04 02:07:24;;;;;;;35.22;21.10;;;6.50;99.90;;;;;;4970708;28;20092;-83
2021/11/04 02:10:03;;;;;;;39.00;21.83;;;6.50;99.90;;;;;;4969770;28;20036;-83
2021/11/04 02:12:37;;;;;;;35.47;21.60;;;6.60;99.90;;;;;;4971583;28;20038;-83
2021/11/04 02:15:03;;;;;;;32.17;19.83;;;6.50;99.90;;;;;;4970465;28;20035;-83
2021/11/04 02:17:31;;;;;;;34.38;21.77;;;6.60;99.90;;;;;;4973371;28;20502;-84
2021/11/04 02:19:59;;;;;;;34.75;22.17;;;6.60;99.90;;;;;;4973290;28;20026;-84
2021/11/04 02:22:28;;;;;;;34.55;22.35;;;6.60;99.90;;;;;;4972002;28;20027;-83
2021/11/04 02:25:15;;;;;;;37.30;20.90;;;6.60;99.90;;;;;;4975623;28;20095;-83
2021/11/04 02:27:46;;;;;;;34.58;19.85;;;6.60;99.90;;;;;;4968472;28;20174;-85
2021/11/04 02:30:13;;;;;;;31.38;19.70;;;6.60;99.90;;;;;;4973688;28;20039;-85
2021/11/04 02:32:39;;;;;;;31.90;20.67;;;6.60;99.90;;;;;;4973401;28;20411;-86
2021/11/04 02:35:06;;;;;;;37.00;22.65;;;6.60;99.90;;;;;;4972593;28;20035;-85
2021/11/04 02:37:32;;;;;;;33.20;20.40;;;6.60;99.90;;;;;;4971608;28;20197;-83
2021/11/04 02:39:59;;;;;;;33.83;21.27;;;6.60;99.90;;;;;;5031741;23;20048;-54
2021/11/04 02:42:25;;;;;;;34.45;22.35;;;6.60;99.90;;;;;;5034236;28;20033;-51
2021/11/04 02:44:51;;;;;;;39.78;23.35;;;6.60;99.90;;;;;;5040844;28;20029;-52
2021/11/04 02:47:17;;;;;;;32.25;20.48;;;6.60;99.90;;;;;;5034657;28;20036;-52
2021/11/04 02:49:45;;;;;;;36.65;22.08;;;6.60;99.90;;;;;;5033915;28;20055;-53
2021/11/04 02:52:12;;;;;;;30.50;19.50;;;6.60;99.90;;;;;;5035589;28;20080;-53
2021/11/04 02:54:37;;;;;;;35.15;23.15;;;6.60;99.90;;;;;;5037658;28;20025;-55
2021/11/04 02:57:03;;;;;;;37.03;22.10;;;6.60;99.90;;;;;;5038357;28;20511;-53
2021/11/04 02:59:29;;;;;;;35.88;22.05;;;6.60;99.90;;;;;;5040659;28;20021;-51
2021/11/04 03:01:59;;;;;;;34.25;21.80;;;6.60;99.90;;;;;;5042617;28;20021;-53
2021/11/04 03:04:26;;;;;;;33.03;19.65;;;6.60;99.90;;;;;;5038378;28;20047;-53
2021/11/04 03:06:53;;;;;;;33.88;20.90;;;6.60;99.90;;;;;;5036872;28;20461;-52
2021/11/04 03:09:19;;;;;;;34.95;22.17;;;6.60;99.90;;;;;;5037876;28;20029;-54
2021/11/04 03:11:45;;;;;;;34.60;20.95;;;6.60;99.90;;;;;;5038592;28;20024;-53
2021/11/04 03:14:12;;;;;;;37.28;20.95;;;6.60;99.90;;;;;;5038186;28;20393;-54
2021/11/04 03:16:43;;;;;;;36.58;22.77;;;6.60;99.90;;;;;;5038148;28;20028;-54
2021/11/04 03:19:11;;;;;;;33.53;20.00;;;6.70;99.90;;;;;;5037777;28;20513;-53
2021/11/04 03:21:41;;;;;;;37.70;23.55;;;6.60;99.90;;;;;;5038125;28;20021;-53
2021/11/04 03:24:07;;;;;;;33.50;20.88;;;6.60;99.90;;;;;;5038593;28;20030;-54
2021/11/04 03:26:39;;;;;;;34.85;22.10;;;6.60;99.90;;;;;;5038157;28;20040;-54
2021/11/04 03:29:06;;;;;;;34.80;20.08;;;6.70;99.90;;;;;;5037505;28;20040;-51
2021/11/04 03:31:34;;;;;;;33.42;22.10;;;6.60;99.90;;;;;;5037933;28;20124;-52
2021/11/04 03:34:01;;;;;;;32.55;20.85;;;6.70;99.90;;;;;;5037467;28;20029;-52
2021/11/04 03:36:28;;;;;;;34.50;21.42;;;6.60;99.90;;;;;;5036635;28;20033;-52
2021/11/04 03:38:54;;;;;;;36.25;21.80;;;6.60;99.90;;;;;;5034075;28;20582;-54
2021/11/04 03:41:20;;;;;;;37.05;22.83;;;6.60;99.90;;;;;;5021892;28;20029;-54
2021/11/04 03:43:47;;;;;;;32.05;20.98;;;6.60;99.90;;;;;;5021592;28;20079;-51
2021/11/04 03:46:13;;;;;;;36.63;21.40;;;6.60;99.90;;;;;;5037050;28;20037;-53
2021/11/04 03:48:41;;;;;;;35.92;21.02;;;6.60;99.90;;;;;;5036253;28;20086;-53
2021/11/04 03:51:08;;;;;;;35.95;22.38;;;6.70;99.90;;;;;;5037589;28;20064;-54
2021/11/04 03:53:36;;;;;;;30.80;20.23;;;6.70;99.90;;;;;;5037322;28;20040;-52
2021/11/04 03:56:03;;;;;;;43.90;21.77;;;6.70;99.90;;;;;;5036200;28;20128;-54
2021/11/04 03:58:29;;;;;;;35.72;22.58;;;6.70;99.90;;;;;;5051647;28;20039;-51
2021/11/04 04:00:58;;;;;;;33.17;20.75;;;6.70;99.90;;;;;;5037460;28;20103;-52
2021/11/04 04:03:24;;;;;;;37.47;20.85;;;6.70;99.90;;;;;;5035774;28;20107;-54
2021/11/04 04:06:07;;;;;;;30.75;20.77;;;6.70;99.90;;;;;;5037161;28;20459;-53
2021/11/04 04:08:34;;;;;;;32.25;20.35;;;6.70;99.90;;;;;;5037465;28;20057;-52
2021/11/04 04:11:01;;;;;;;35.40;21.15;;;6.70;99.90;;;;;;5037595;28;20079;-55
2021/11/04 04:13:26;;;;;;;36.85;20.92;;;6.70;99.90;;;;;;5038861;28;20750;-56
2021/11/04 04:15:52;;;;;;;34.83;21.15;;;6.70;99.90;;;;;;5038582;28;20055;-54
2021/11/04 04:18:18;;;;;;;39.15;22.88;;;6.70;99.90;;;;;;5034815;28;20025;-55
2021/11/04 04:20:45;;;;;;;31.70;20.73;;;6.70;99.90;;;;;;5037491;28;20030;-55
2021/11/04 04:23:11;;;;;;;32.33;19.33;;;6.70;99.90;;;;;;5037509;28;20171;-57
2021/11/04 04:25:36;;;;;;;33.17;20.35;;;6.70;99.90;;;;;;5040358;28;20033;-56
2021/11/04 04:28:02;;;;;;;32.25;19.90;;;6.70;99.90;;;;;;5037096;28;20128;-57
2021/11/04 04:30:28;;;;;;;35.13;19.98;;;6.70;99.90;;;;;;5035700;28;20527;-53
2021/11/04 04:32:53;;;;;;;33.78;19.00;;;6.70;99.90;;;;;;5037924;28;20032;-52
2021/11/04 04:35:19;;;;;;;34.85;20.77;;;6.70;99.90;;;;;;5036087;28;20193;-53
2021/11/04 04:37:45;;;;;;;31.70;19.95;;;6.70;99.90;;;;;;5036565;28;20204;-56
2021/11/04 04:40:11;;;;;;;34.42;21.38;;;6.70;99.90;;;;;;5037446;28;20053;-56
2021/11/04 04:42:39;;;;;;;30.65;19.70;;;6.70;99.90;;;;;;5036476;28;20128;-53
2021/11/04 04:45:07;;;;;;;30.60;18.67;;;6.70;99.90;;;;;;5034686;28;20033;-55
2021/11/04 04:47:33;;;;;;;28.70;17.85;;;6.70;99.90;;;;;;5035327;28;20033;-52
2021/11/04 04:49:58;;;;;;;29.95;18.65;;;6.70;99.90;;;;;;5036090;28;20036;-53
2021/11/04 04:52:28;;;;;;;28.23;17.50;;;6.70;99.90;;;;;;5022752;28;20675;-52
2021/11/04 04:54:54;;;;;;;27.85;17.52;;;6.70;99.90;;;;;;5025558;28;20288;-55
2021/11/04 04:57:23;;;;;;;27.13;16.88;;;6.70;99.90;;;;;;5028785;28;20049;-51
2021/11/04 04:59:57;;;;;;;29.52;17.70;;;6.70;99.90;;;;;;5034915;28;20481;-54
2021/11/04 05:02:26;;;;;;;24.45;16.48;;;6.70;99.90;;;;;;5036015;28;20025;-51
2021/11/04 05:04:52;;;;;;;27.85;17.33;;;6.70;99.90;;;;;;5036714;28;20028;-54
2021/11/04 05:07:18;;;;;;;23.35;15.57;;;6.70;99.90;;;;;;5037369;28;20035;-54
2021/11/04 05:09:44;;;;;;;27.10;17.10;;;6.70;99.90;;;;;;5034936;28;20714;-53
2021/11/04 05:12:10;;;;;;;25.05;17.35;;;6.70;99.90;;;;;;5036684;28;20128;-54
2021/11/04 05:14:36;;;;;;;21.88;15.45;;;6.70;99.90;;;;;;5035125;28;20029;-54
2021/11/04 05:17:03;;;;;;;26.45;16.98;;;6.70;99.90;;;;;;5035337;28;20063;-52
2021/11/04 05:19:28;;;;;;;28.10;16.70;;;6.70;99.90;;;;;;5034855;28;20044;-52
2021/11/04 05:21:54;;;;;;;25.88;17.80;;;6.70;99.90;;;;;;5034405;28;20029;-52
2021/11/04 05:24:20;;;;;;;28.10;17.58;;;6.70;99.90;;;;;;5034504;28;20024;-55
2021/11/04 05:26:47;;;;;;;32.08;18.92;;;6.70;99.90;;;;;;5034019;28;20115;-55
2021/11/04 05:29:13;;;;;;;25.08;17.50;;;6.70;99.90;;;;;;5035665;28;20507;-53
2021/11/04 05:31:40;;;;;;;32.63;19.52;;;6.70;99.90;;;;;;5035139;28;20120;-51
2021/11/04 05:34:05;;;;;;;31.25;20.13;;;6.70;99.90;;;;;;5035061;28;20382;-54
2021/11/04 05:36:32;;;;;;;30.15;19.08;;;6.70;99.90;;;;;;5035165;28;20025;-55
2021/11/04 05:38:58;;;;;;;31.10;18.73;;;6.60;99.90;;;;;;5035288;28;20021;-53
2021/11/04 05:41:24;;;;;;;34.05;21.08;;;6.70;99.90;;;;;;5035859;28;20027;-54
2021/11/04 05:43:50;;;;;;;33.88;20.50;;;6.70;99.90;;;;;;5034366;28;20787;-55
2021/11/04 05:46:15;;;;;;;33.20;20.35;;;6.70;99.90;;;;;;5036244;28;20404;-53
2021/11/04 05:48:41;;;;;;;34.40;20.23;;;6.70;99.90;;;;;;5033878;28;20555;-56
2021/11/04 05:51:07;;;;;;;36.13;20.85;;;6.70;99.90;;;;;;5036331;28;20032;-52
2021/11/04 05:53:32;;;;;;;35.63;20.30;;;6.70;99.90;;;;;;5034759;28;20037;-54
2021/11/04 05:55:58;;;;;;;34.47;19.98;;;6.70;99.90;;;;;;5035102;28;20025;-51
2021/11/04 05:58:24;;;;;;;27.92;19.63;;;6.70;99.90;;;;;;5034232;28;20524;-52
2021/11/04 06:00:49;;;;;;;29.25;18.55;;;6.70;99.90;;;;;;5027250;28;20030;-53
2021/11/04 06:03:15;;;;;;;34.45;21.90;;;6.70;99.90;;;;;;5033994;28;20057;-53
2021/11/04 06:05:42;;;;;;;31.65;19.00;;;6.70;99.90;;;;;;5023805;28;20516;-51
2021/11/04 06:08:08;;;;;;;31.85;20.05;;;6.70;99.90;;;;;;5033979;28;20116;-55
2021/11/04 06:10:35;;;;;;;33.53;21.15;;;6.70;99.90;;;;;;5035125;28;20529;-54
2021/11/04 06:13:01;;;;;;;31.20;21.05;;;6.70;99.90;;;;;;5038584;28;20108;-52
2021/11/04 06:15:26;;;;;;;34.90;20.15;;;6.70;99.90;;;;;;5039663;28;20100;-56
2021/11/04 06:17:52;;;;;;;31.55;18.85;;;6.70;99.90;;;;;;5038035;28;20051;-55
2021/11/04 06:20:18;;;;;;;32.42;20.30;;;6.80;99.90;;;;;;5037384;28;20029;-57
2021/11/04 06:22:43;;;;;;;34.08;20.25;;;6.70;99.90;;;;;;5036726;28;20024;-56
2021/11/04 06:25:10;;;;;;;37.10;20.65;;;6.70;99.90;;;;;;5038200;28;20154;-56
2021/11/04 06:27:37;;;;;;;31.63;19.92;;;6.80;99.90;;;;;;5035428;28;20033;-53
2021/11/04 06:30:12;;;;;;;32.88;19.08;;;6.80;99.90;;;;;;5036737;28;20409;-56
2021/11/04 06:32:38;;;;;;;35.90;20.65;;;6.80;99.90;;;;;;5036905;28;20022;-52
2021/11/04 06:35:06;;;;;;;34.53;20.42;;;6.80;99.90;;;;;;5037771;28;20022;-57
2021/11/04 06:37:31;;;;;;;33.67;20.77;;;6.80;99.90;;;;;;5036502;28;20637;-51
2021/11/04 19:22:54;;;;;;;22.15;14.20;;;7.30;99.90;;;;;;5131763;27;20199;-82
2021/11/04 19:25:21;;;;;;;19.88;14.23;;;7.40;99.90;;;;;;5118623;28;20468;-81
2021/11/04 19:27:47;;;;;;;22.52;14.85;;;7.30;99.90;;;;;;5119386;28;20019;-81
2021/11/04 19:30:15;;;;;;;20.30;14.35;;;7.30;99.90;;;;;;5129961;28;20023;-80
2021/11/04 19:32:42;;;;;;;16.30;12.88;;;7.30;99.90;;;;;;5127098;28;20039;-80
2021/11/04 19:35:08;;;;;;;18.30;12.73;;;7.30;99.90;;;;;;5129351;28;20060;-80
2021/11/04 19:37:34;;;;;;;22.23;13.70;;;7.30;99.90;;;;;;5129143;28;20031;-81
2021/11/04 19:39:59;;;;;;;18.80;13.05;;;7.30;99.90;;;;;;5128098;28;20542;-80
2021/11/04 19:42:26;;;;;;;22.73;13.82;;;7.30;99.90;;;;;;5129648;27;20023;-81
2021/11/04 19:44:52;;;;;;;17.77;13.52;;;7.30;99.90;;;;;;5128536;28;20024;-81
2021/11/04 19:47:18;;;;;;;20.83;13.23;;;7.30;99.90;;;;;;5124814;27;20040;-81
2021/11/04 19:49:45;;;;;;;20.23;12.95;;;7.30;99.90;;;;;;5127235;28;20023;-80
2021/11/04 19:52:12;;;;;;;17.77;12.77;;;7.30;99.90;;;;;;5129035;28;20054;-81
2021/11/04 19:54:38;;;;;;;17.15;12.27;;;7.30;99.90;;;;;;5129293;28;20496;-80
2021/11/04 19:57:07;;;;;;;17.73;13.80;;;7.30;99.90;;;;;;5128226;28;20046;-81
2021/11/04 19:59:33;;;;;;;18.20;13.43;;;7.30;99.90;;;;;;5127799;27;20034;-82
2021/11/04 20:01:59;;;;;;;21.05;13.18;;;7.30;99.90;;;;;;5126717;28;20027;-79
2021/11/04 20:04:25;;;;;;;18.98;13.90;;;7.30;99.90;;;;;;5126898;28;20110;-82
2021/11/04 20:06:52;;;;;;;19.23;13.88;;;7.30;99.90;;;;;;5122060;28;20080;-81
2021/11/04 20:09:18;;;;;;;18.52;13.85;;;7.20;99.90;;;;;;5127979;28;20103;-81
2021/11/04 20:11:44;;;;;;;19.85;14.68;;;7.20;99.90;;;;;;5128834;28;20024;-81
2021/11/04 20:14:10;;;;;;;18.02;14.10;;;7.30;99.90;;;;;;5127487;28;20529;-80
2021/11/04 20:16:36;;;;;;;19.25;14.32;;;7.20;99.90;;;;;;5125612;28;20079;-80
2021/11/04 20:19:02;;;;;;;18.02;13.07;;;7.20;99.90;;;;;;5127217;28;20450;-82
2021/11/04 20:21:28;;;;;;;22.73;13.48;;;7.20;99.90;;;;;;5121655;28;20035;-80
2021/11/04 20:23:54;;;;;;;23.15;13.98;;;7.30;99.90;;;;;;5127685;28;20023;-81
2021/11/04 20:26:21;;;;;;;22.05;14.90;;;7.20;99.90;;;;;;5127158;28;20160;-82
2021/11/04 20:28:47;;;;;;;21.42;14.38;;;7.20;99.90;;;;;;5126868;28;20016;-82
2021/11/04 20:31:13;;;;;;;19.15;13.43;;;7.20;99.90;;;;;;5127080;28;20027;-83
2021/11/04 20:33:39;;;;;;;17.73;13.90;;;7.20;99.90;;;;;;5110175;28;20055;-81
2021/11/04 20:36:06;;;;;;;21.15;13.40;;;7.20;99.90;;;;;;5113305;28;20019;-80
2021/11/04 20:38:34;;;;;;;22.73;14.10;;;7.20;99.90;;;;;;5112491;28;20020;-82
2021/11/04 20:41:00;;;;;;;21.23;15.50;;;7.20;99.90;;;;;;5111185;28;20017;-81
2021/11/04 20:43:26;;;;;;;22.67;15.52;;;7.30;99.90;;;;;;5112526;28;20043;-80
2021/11/04 20:45:52;;;;;;;19.58;14.13;;;7.20;99.90;;;;;;5113250;28;20069;-82
2021/11/04 20:48:17;;;;;;;21.65;15.18;;;7.20;99.90;;;;;;5113234;28;20024;-83
2021/11/04 20:50:44;;;;;;;22.00;14.18;;;7.20;99.90;;;;;;5114423;28;20027;-83
2021/11/04 20:53:11;;;;;;;26.73;15.20;;;7.20;99.90;;;;;;5113199;28;20051;-79
2021/11/04 20:55:37;;;;;;;23.83;15.13;;;7.30;99.90;;;;;;5113686;28;20389;-82
